sensor_id;sensor_type;location;lat;lon;timestamp;temperature;humidity
19348;DHT22;9810;52.480;9.806;2023-09-19T00:00:17;16.80;99.90
19348;DHT22;9810;52.480;9.806;2023-09-19T00:02:51;16.80;99.90
19348;DHT22;9810;52.480;9.806;2023-09-19T00:05:18;17.00;99.90
19348;DHT22;9810;52.480;9.806;2023-09-19T00:07:49;17.00;99.90
19348;DHT22;9810;52.480;9.806;2023-09-19T00:10:19;17.00;99.90
19348;DHT22;9810;52.480;9.806;2023-09-19T00:13:01;17.00;99.90
19348;DHT22;9810;52.480;9.806;2023-09-19T00:15:35;17.10;99.90
19348;DHT22;9810;52.480;9.806;2023-09-19T00:18:03;17.20;99.90
19348;DHT22;9810;52.480;9.806;2023-09-19T00:20:32;17.10;99.90
19348;DHT22;9810;52.480;9.806;2023-09-19T00:23:00;17.10;99.90
19348;DHT22;9810;52.480;9.806;2023-09-19T00:25:34;17.20;99.90
19348;DHT22;9810;52.480;9.806;2023-09-19T00:28:04;17.10;99.90
19348;DHT22;9810;52.480;9.806;2023-09-19T00:30:33;17.00;99.90
19348;DHT22;9810;52.480;9.806;2023-09-19T00:33:00;17.00;99.90
19348;DHT22;9810;52.480;9.806;2023-09-19T00:35:31;17.00;99.90
19348;DHT22;9810;52.480;9.806;2023-09-19T00:37:58;17.00;99.90
19348;DHT22;9810;52.480;9.806;2023-09-19T00:40:25;17.10;99.90
19348;DHT22;9810;52.480;9.806;2023-09-19T00:42:57;17.00;99.90
19348;DHT22;9810;52.480;9.806;2023-09-19T00:45:27;17.10;99.90
19348;DHT22;9810;52.480;9.806;2023-09-19T00:47:57;16.90;99.90
19348;DHT22;9810;52.480;9.806;2023-09-19T00:50:25;16.90;99.90
19348;DHT22;9810;52.480;9.806;2023-09-19T00:52:54;17.00;99.90
19348;DHT22;9810;52.480;9.806;2023-09-19T00:55:24;17.00;99.90
19348;DHT22;9810;52.480;9.806;2023-09-19T00:57:51;17.00;99.90
19348;DHT22;9810;52.480;9.806;2023-09-19T01:00:19;17.00;99.90
19348;DHT22;9810;52.480;9.806;2023-09-19T01:02:48;17.10;99.90
19348;DHT22;9810;52.480;9.806;2023-09-19T01:05:15;16.90;99.90
19348;DHT22;9810;52.480;9.806;2023-09-19T01:07:42;17.00;99.90
19348;DHT22;9810;52.480;9.806;2023-09-19T01:10:12;16.90;99.90
19348;DHT22;9810;52.480;9.806;2023-09-19T01:12:47;16.90;99.90
19348;DHT22;9810;52.480;9.806;2023-09-19T01:15:25;17.00;99.90
19348;DHT22;9810;52.480;9.806;2023-09-19T01:18:01;16.90;99.90
19348;DHT22;9810;52.480;9.806;2023-09-19T01:20:39;17.00;99.90
19348;DHT22;9810;52.480;9.806;2023-09-19T01:23:13;17.00;99.90
19348;DHT22;9810;52.480;9.806;2023-09-19T01:26:10;16.90;99.90
19348;DHT22;9810;52.480;9.806;2023-09-19T01:28:52;16.80;99.90
19348;DHT22;9810;52.480;9.806;2023-09-19T01:31:24;16.80;99.90
19348;DHT22;9810;52.480;9.806;2023-09-19T01:33:56;16.80;99.90
19348;DHT22;9810;52.480;9.806;2023-09-19T01:36:32;16.80;99.90
19348;DHT22;9810;52.480;9.806;2023-09-19T01:39:02;16.90;99.90
19348;DHT22;9810;52.480;9.806;2023-09-19T01:44:36;16.90;99.90
19348;DHT22;9810;52.480;9.806;2023-09-19T01:47:19;17.10;99.90
19348;DHT22;9810;52.480;9.806;2023-09-19T01:49:56;16.90;99.90
19348;DHT22;9810;52.480;9.806;2023-09-19T01:52:30;16.90;99.90
19348;DHT22;9810;52.480;9.806;2023-09-19T01:55:02;16.90;99.90
19348;DHT22;9810;52.480;9.806;2023-09-19T01:57:35;17.00;99.90
19348;DHT22;9810;52.480;9.806;2023-09-19T02:00:05;17.00;99.90
19348;DHT22;9810;52.480;9.806;2023-09-19T02:02:36;17.00;99.90
19348;DHT22;9810;52.480;9.806;2023-09-19T02:05:04;16.80;99.90
19348;DHT22;9810;52.480;9.806;2023-09-19T02:07:32;16.80;99.90
19348;DHT22;9810;52.480;9.806;2023-09-19T02:09:59;16.70;99.90
19348;DHT22;9810;52.480;9.806;2023-09-19T02:12:26;16.90;99.90
19348;DHT22;9810;52.480;9.806;2023-09-19T02:14:54;16.80;99.90
19348;DHT22;9810;52.480;9.806;2023-09-19T02:17:21;16.90;99.90
19348;DHT22;9810;52.480;9.806;2023-09-19T02:19:53;16.90;99.90
19348;DHT22;9810;52.480;9.806;2023-09-19T02:22:20;16.90;99.90
19348;DHT22;9810;52.480;9.806;2023-09-19T02:24:48;16.90;99.90
19348;DHT22;9810;52.480;9.806;2023-09-19T02:27:16;16.70;99.90
19348;DHT22;9810;52.480;9.806;2023-09-19T02:29:43;16.60;99.90
19348;DHT22;9810;52.480;9.806;2023-09-19T02:32:10;16.60;99.90
19348;DHT22;9810;52.480;9.806;2023-09-19T02:34:37;16.70;99.90
19348;DHT22;9810;52.480;9.806;2023-09-19T02:37:07;16.70;99.90
19348;DHT22;9810;52.480;9.806;2023-09-19T02:39:34;16.70;99.90
19348;DHT22;9810;52.480;9.806;2023-09-19T02:42:01;16.70;99.90
19348;DHT22;9810;52.480;9.806;2023-09-19T02:44:29;16.70;99.90
19348;DHT22;9810;52.480;9.806;2023-09-19T02:46:57;16.80;99.90
19348;DHT22;9810;52.480;9.806;2023-09-19T02:49:24;16.80;99.90
19348;DHT22;9810;52.480;9.806;2023-09-19T02:51:51;16.70;99.90
19348;DHT22;9810;52.480;9.806;2023-09-19T02:54:35;16.70;99.90
19348;DHT22;9810;52.480;9.806;2023-09-19T02:57:06;16.70;99.90
19348;DHT22;9810;52.480;9.806;2023-09-19T02:59:34;16.70;99.90
19348;DHT22;9810;52.480;9.806;2023-09-19T03:02:03;16.60;99.90
19348;DHT22;9810;52.480;9.806;2023-09-19T03:04:31;16.70;99.90
19348;DHT22;9810;52.480;9.806;2023-09-19T03:06:58;16.60;99.90
19348;DHT22;9810;52.480;9.806;2023-09-19T03:09:26;16.70;99.90
19348;DHT22;9810;52.480;9.806;2023-09-19T03:11:55;16.60;99.90
19348;DHT22;9810;52.480;9.806;2023-09-19T03:14:22;16.50;99.90
19348;DHT22;9810;52.480;9.806;2023-09-19T03:16:50;16.40;99.90
19348;DHT22;9810;52.480;9.806;2023-09-19T03:19:18;16.50;99.90
19348;DHT22;9810;52.480;9.806;2023-09-19T03:21:46;16.50;99.90
19348;DHT22;9810;52.480;9.806;2023-09-19T03:24:15;16.40;99.90
19348;DHT22;9810;52.480;9.806;2023-09-19T03:26:42;16.20;99.90
19348;DHT22;9810;52.480;9.806;2023-09-19T03:29:11;16.10;99.90
19348;DHT22;9810;52.480;9.806;2023-09-19T03:31:39;16.10;99.90
19348;DHT22;9810;52.480;9.806;2023-09-19T03:34:06;16.00;99.90
19348;DHT22;9810;52.480;9.806;2023-09-19T03:36:34;16.00;99.90
19348;DHT22;9810;52.480;9.806;2023-09-19T03:39:02;15.90;99.90
19348;DHT22;9810;52.480;9.806;2023-09-19T03:41:30;16.10;99.90
19348;DHT22;9810;52.480;9.806;2023-09-19T03:43:58;16.00;99.90
19348;DHT22;9810;52.480;9.806;2023-09-19T03:46:28;16.20;99.90
19348;DHT22;9810;52.480;9.806;2023-09-19T03:48:55;16.20;99.90
19348;DHT22;9810;52.480;9.806;2023-09-19T03:51:22;16.10;99.90
19348;DHT22;9810;52.480;9.806;2023-09-19T03:53:49;16.00;99.90
19348;DHT22;9810;52.480;9.806;2023-09-19T03:56:16;16.10;99.90
19348;DHT22;9810;52.480;9.806;2023-09-19T03:58:43;16.00;99.90
19348;DHT22;9810;52.480;9.806;2023-09-19T04:01:10;16.00;99.90
19348;DHT22;9810;52.480;9.806;2023-09-19T04:03:40;16.10;99.90
19348;DHT22;9810;52.480;9.806;2023-09-19T04:06:13;16.20;99.90
19348;DHT22;9810;52.480;9.806;2023-09-19T04:08:40;16.10;99.90
19348;DHT22;9810;52.480;9.806;2023-09-19T04:11:07;16.10;99.90
19348;DHT22;9810;52.480;9.806;2023-09-19T04:13:34;16.20;99.90
19348;DHT22;9810;52.480;9.806;2023-09-19T04:16:01;16.10;99.90
19348;DHT22;9810;52.480;9.806;2023-09-19T04:18:29;16.30;99.90
19348;DHT22;9810;52.480;9.806;2023-09-19T04:21:00;16.30;99.90
19348;DHT22;9810;52.480;9.806;2023-09-19T04:23:29;16.20;99.90
19348;DHT22;9810;52.480;9.806;2023-09-19T04:25:57;15.90;99.90
19348;DHT22;9810;52.480;9.806;2023-09-19T04:28:24;15.80;99.90
19348;DHT22;9810;52.480;9.806;2023-09-19T04:30:53;15.70;99.90
19348;DHT22;9810;52.480;9.806;2023-09-19T04:33:21;15.80;99.90
19348;DHT22;9810;52.480;9.806;2023-09-19T04:35:49;15.90;99.90
19348;DHT22;9810;52.480;9.806;2023-09-19T04:38:18;15.90;99.90
19348;DHT22;9810;52.480;9.806;2023-09-19T04:40:45;15.80;99.90
19348;DHT22;9810;52.480;9.806;2023-09-19T04:43:12;15.80;99.90
19348;DHT22;9810;52.480;9.806;2023-09-19T04:45:40;15.80;99.90
19348;DHT22;9810;52.480;9.806;2023-09-19T04:48:07;15.60;99.90
19348;DHT22;9810;52.480;9.806;2023-09-19T04:50:36;15.70;99.90
19348;DHT22;9810;52.480;9.806;2023-09-19T04:53:04;15.70;99.90
19348;DHT22;9810;52.480;9.806;2023-09-19T04:55:34;15.50;99.90
19348;DHT22;9810;52.480;9.806;2023-09-19T04:58:02;15.50;99.90
19348;DHT22;9810;52.480;9.806;2023-09-19T05:00:29;15.70;99.90
19348;DHT22;9810;52.480;9.806;2023-09-19T05:03:00;15.70;99.90
19348;DHT22;9810;52.480;9.806;2023-09-19T05:05:29;15.60;99.90
19348;DHT22;9810;52.480;9.806;2023-09-19T05:07:56;15.60;99.90
19348;DHT22;9810;52.480;9.806;2023-09-19T05:10:24;15.50;99.90
19348;DHT22;9810;52.480;9.806;2023-09-19T05:12:54;15.60;99.90
19348;DHT22;9810;52.480;9.806;2023-09-19T05:15:22;15.60;99.90
19348;DHT22;9810;52.480;9.806;2023-09-19T05:17:50;15.60;99.90
19348;DHT22;9810;52.480;9.806;2023-09-19T05:20:17;15.70;99.90
19348;DHT22;9810;52.480;9.806;2023-09-19T05:22:57;15.80;99.90
19348;DHT22;9810;52.480;9.806;2023-09-19T05:25:24;15.70;99.90
19348;DHT22;9810;52.480;9.806;2023-09-19T05:27:57;15.60;99.90
19348;DHT22;9810;52.480;9.806;2023-09-19T05:30:25;15.80;99.90
19348;DHT22;9810;52.480;9.806;2023-09-19T05:32:54;15.90;99.90
19348;DHT22;9810;52.480;9.806;2023-09-19T05:35:22;16.00;99.90
19348;DHT22;9810;52.480;9.806;2023-09-19T05:37:51;15.90;99.90
19348;DHT22;9810;52.480;9.806;2023-09-19T05:40:18;15.70;99.90
19348;DHT22;9810;52.480;9.806;2023-09-19T05:42:45;15.80;99.90
19348;DHT22;9810;52.480;9.806;2023-09-19T05:45:14;15.80;99.90
19348;DHT22;9810;52.480;9.806;2023-09-19T05:47:48;15.90;99.90
19348;DHT22;9810;52.480;9.806;2023-09-19T05:50:15;16.10;99.90
19348;DHT22;9810;52.480;9.806;2023-09-19T05:52:47;16.00;99.90
19348;DHT22;9810;52.480;9.806;2023-09-19T05:55:18;16.20;99.90
19348;DHT22;9810;52.480;9.806;2023-09-19T05:57:49;16.20;99.90
19348;DHT22;9810;52.480;9.806;2023-09-19T06:00:19;16.30;99.90
19348;DHT22;9810;52.480;9.806;2023-09-19T06:02:50;16.10;99.90
19348;DHT22;9810;52.480;9.806;2023-09-19T06:05:17;16.10;99.90
19348;DHT22;9810;52.480;9.806;2023-09-19T06:07:45;16.00;99.90
19348;DHT22;9810;52.480;9.806;2023-09-19T06:10:12;16.30;99.90
19348;DHT22;9810;52.480;9.806;2023-09-19T06:12:40;16.10;99.90
19348;DHT22;9810;52.480;9.806;2023-09-19T06:15:11;16.40;99.90
19348;DHT22;9810;52.480;9.806;2023-09-19T06:17:43;16.80;99.90
19348;DHT22;9810;52.480;9.806;2023-09-19T06:20:13;16.30;99.90
19348;DHT22;9810;52.480;9.806;2023-09-19T06:22:41;16.30;99.90
19348;DHT22;9810;52.480;9.806;2023-09-19T06:25:09;16.40;99.90
19348;DHT22;9810;52.480;9.806;2023-09-19T06:27:38;16.30;99.90
19348;DHT22;9810;52.480;9.806;2023-09-19T06:30:08;16.50;99.90
19348;DHT22;9810;52.480;9.806;2023-09-19T06:32:35;16.90;99.90
19348;DHT22;9810;52.480;9.806;2023-09-19T06:35:04;16.90;99.90
19348;DHT22;9810;52.480;9.806;2023-09-19T06:37:34;16.80;99.90
19348;DHT22;9810;52.480;9.806;2023-09-19T06:40:01;16.70;99.90
19348;DHT22;9810;52.480;9.806;2023-09-19T06:42:31;16.70;99.90
19348;DHT22;9810;52.480;9.806;2023-09-19T06:44:58;16.50;99.90
19348;DHT22;9810;52.480;9.806;2023-09-19T06:47:25;16.60;99.90
19348;DHT22;9810;52.480;9.806;2023-09-19T06:49:52;16.80;99.90
19348;DHT22;9810;52.480;9.806;2023-09-19T06:52:21;17.30;99.90
19348;DHT22;9810;52.480;9.806;2023-09-19T06:54:48;16.90;99.90
19348;DHT22;9810;52.480;9.806;2023-09-19T06:57:16;16.80;99.90
19348;DHT22;9810;52.480;9.806;2023-09-19T06:59:43;16.90;99.90
19348;DHT22;9810;52.480;9.806;2023-09-19T07:02:10;16.90;99.90
19348;DHT22;9810;52.480;9.806;2023-09-19T07:04:37;17.30;99.90
19348;DHT22;9810;52.480;9.806;2023-09-19T07:07:04;17.20;99.90
19348;DHT22;9810;52.480;9.806;2023-09-19T07:09:34;17.30;99.90
19348;DHT22;9810;52.480;9.806;2023-09-19T07:12:03;17.20;99.90
19348;DHT22;9810;52.480;9.806;2023-09-19T07:14:30;17.30;99.90
19348;DHT22;9810;52.480;9.806;2023-09-19T07:16:58;17.20;99.90
19348;DHT22;9810;52.480;9.806;2023-09-19T07:19:26;17.30;99.90
19348;DHT22;9810;52.480;9.806;2023-09-19T07:21:55;17.40;99.90
19348;DHT22;9810;52.480;9.806;2023-09-19T07:24:24;17.60;99.90
19348;DHT22;9810;52.480;9.806;2023-09-19T07:26:55;17.70;99.90
19348;DHT22;9810;52.480;9.806;2023-09-19T07:29:23;17.80;99.90
19348;DHT22;9810;52.480;9.806;2023-09-19T07:31:52;18.20;99.90
19348;DHT22;9810;52.480;9.806;2023-09-19T07:34:19;18.80;99.90
19348;DHT22;9810;52.480;9.806;2023-09-19T07:36:47;18.50;99.90
19348;DHT22;9810;52.480;9.806;2023-09-19T07:39:14;18.60;99.90
19348;DHT22;9810;52.480;9.806;2023-09-19T07:41:41;18.80;99.90
19348;DHT22;9810;52.480;9.806;2023-09-19T07:44:10;19.50;99.90
19348;DHT22;9810;52.480;9.806;2023-09-19T07:46:40;19.30;99.90
19348;DHT22;9810;52.480;9.806;2023-09-19T07:49:07;19.20;99.90
19348;DHT22;9810;52.480;9.806;2023-09-19T07:51:38;19.60;99.90
19348;DHT22;9810;52.480;9.806;2023-09-19T07:54:07;19.60;99.90
19348;DHT22;9810;52.480;9.806;2023-09-19T07:56:37;20.10;99.90
19348;DHT22;9810;52.480;9.806;2023-09-19T07:59:12;20.10;99.90
19348;DHT22;9810;52.480;9.806;2023-09-19T08:01:39;19.50;99.90
19348;DHT22;9810;52.480;9.806;2023-09-19T08:04:07;19.70;99.90
19348;DHT22;9810;52.480;9.806;2023-09-19T08:06:36;19.80;99.90
19348;DHT22;9810;52.480;9.806;2023-09-19T08:09:09;19.60;99.90
19348;DHT22;9810;52.480;9.806;2023-09-19T08:11:38;19.80;99.90
19348;DHT22;9810;52.480;9.806;2023-09-19T08:14:08;19.90;99.90
19348;DHT22;9810;52.480;9.806;2023-09-19T08:16:37;20.10;99.90
19348;DHT22;9810;52.480;9.806;2023-09-19T08:19:04;19.70;99.90
19348;DHT22;9810;52.480;9.806;2023-09-19T08:21:36;20.20;99.90
19348;DHT22;9810;52.480;9.806;2023-09-19T08:24:06;20.30;99.90
19348;DHT22;9810;52.480;9.806;2023-09-19T08:26:34;20.90;99.90
19348;DHT22;9810;52.480;9.806;2023-09-19T08:29:10;20.20;99.90
19348;DHT22;9810;52.480;9.806;2023-09-19T08:31:40;19.70;99.90
19348;DHT22;9810;52.480;9.806;2023-09-19T08:34:07;19.50;99.90
19348;DHT22;9810;52.480;9.806;2023-09-19T08:36:34;19.50;99.90
19348;DHT22;9810;52.480;9.806;2023-09-19T08:39:03;19.50;99.90
19348;DHT22;9810;52.480;9.806;2023-09-19T08:41:31;19.90;99.90
19348;DHT22;9810;52.480;9.806;2023-09-19T08:43:59;20.10;99.90
19348;DHT22;9810;52.480;9.806;2023-09-19T08:46:30;20.10;99.90
19348;DHT22;9810;52.480;9.806;2023-09-19T08:49:04;20.30;99.90
19348;DHT22;9810;52.480;9.806;2023-09-19T08:51:39;20.20;99.90
19348;DHT22;9810;52.480;9.806;2023-09-19T08:54:16;20.10;99.90
19348;DHT22;9810;52.480;9.806;2023-09-19T08:56:48;19.90;99.90
19348;DHT22;9810;52.480;9.806;2023-09-19T08:59:17;19.90;99.90
19348;DHT22;9810;52.480;9.806;2023-09-19T09:01:50;20.00;99.90
19348;DHT22;9810;52.480;9.806;2023-09-19T09:04:22;20.00;99.90
19348;DHT22;9810;52.480;9.806;2023-09-19T09:06:51;20.00;99.90
19348;DHT22;9810;52.480;9.806;2023-09-19T09:09:21;20.00;99.90
19348;DHT22;9810;52.480;9.806;2023-09-19T09:11:48;20.40;99.90
19348;DHT22;9810;52.480;9.806;2023-09-19T09:14:19;20.40;99.90
19348;DHT22;9810;52.480;9.806;2023-09-19T09:16:50;20.30;99.90
19348;DHT22;9810;52.480;9.806;2023-09-19T09:19:17;20.30;99.90
19348;DHT22;9810;52.480;9.806;2023-09-19T09:21:51;20.40;99.90
19348;DHT22;9810;52.480;9.806;2023-09-19T09:24:28;20.50;99.90
19348;DHT22;9810;52.480;9.806;2023-09-19T09:26:56;20.30;99.90
19348;DHT22;9810;52.480;9.806;2023-09-19T09:29:40;19.80;99.90
19348;DHT22;9810;52.480;9.806;2023-09-19T09:32:17;19.80;99.90
19348;DHT22;9810;52.480;9.806;2023-09-19T09:34:45;19.70;99.90
19348;DHT22;9810;52.480;9.806;2023-09-19T09:37:15;19.50;99.90
19348;DHT22;9810;52.480;9.806;2023-09-19T09:39:52;19.60;99.90
19348;DHT22;9810;52.480;9.806;2023-09-19T09:42:32;20.00;99.90
19348;DHT22;9810;52.480;9.806;2023-09-19T09:45:17;19.90;99.90
19348;DHT22;9810;52.480;9.806;2023-09-19T09:47:46;19.50;99.90
19348;DHT22;9810;52.480;9.806;2023-09-19T09:50:30;19.60;99.90
19348;DHT22;9810;52.480;9.806;2023-09-19T09:53:24;19.20;99.90
19348;DHT22;9810;52.480;9.806;2023-09-19T09:56:00;19.30;99.90
19348;DHT22;9810;52.480;9.806;2023-09-19T09:58:28;19.30;99.90
19348;DHT22;9810;52.480;9.806;2023-09-19T10:01:00;19.20;99.90
19348;DHT22;9810;52.480;9.806;2023-09-19T10:03:35;19.30;99.90
19348;DHT22;9810;52.480;9.806;2023-09-19T10:06:10;19.40;99.90
19348;DHT22;9810;52.480;9.806;2023-09-19T10:09:08;19.30;99.90
19348;DHT22;9810;52.480;9.806;2023-09-19T10:11:43;19.30;99.90
19348;DHT22;9810;52.480;9.806;2023-09-19T10:14:12;19.30;99.90
19348;DHT22;9810;52.480;9.806;2023-09-19T10:16:41;19.30;99.90
19348;DHT22;9810;52.480;9.806;2023-09-19T10:19:16;19.50;99.90
19348;DHT22;9810;52.480;9.806;2023-09-19T10:21:44;19.70;99.90
19348;DHT22;9810;52.480;9.806;2023-09-19T10:24:21;20.30;99.90
19348;DHT22;9810;52.480;9.806;2023-09-19T10:26:50;20.90;99.90
19348;DHT22;9810;52.480;9.806;2023-09-19T10:29:18;20.30;99.90
19348;DHT22;9810;52.480;9.806;2023-09-19T10:31:49;20.00;99.90
19348;DHT22;9810;52.480;9.806;2023-09-19T10:34:20;19.70;99.90
19348;DHT22;9810;52.480;9.806;2023-09-19T10:36:48;19.80;99.90
19348;DHT22;9810;52.480;9.806;2023-09-19T10:39:19;19.50;99.90
19348;DHT22;9810;52.480;9.806;2023-09-19T10:41:50;19.20;99.90
19348;DHT22;9810;52.480;9.806;2023-09-19T10:44:25;19.70;99.90
19348;DHT22;9810;52.480;9.806;2023-09-19T10:46:54;19.70;99.90
19348;DHT22;9810;52.480;9.806;2023-09-19T10:49:22;19.80;99.90
19348;DHT22;9810;52.480;9.806;2023-09-19T10:51:54;19.80;99.90
19348;DHT22;9810;52.480;9.806;2023-09-19T10:54:30;19.70;99.90
19348;DHT22;9810;52.480;9.806;2023-09-19T10:56:59;19.90;99.90
19348;DHT22;9810;52.480;9.806;2023-09-19T10:59:30;20.20;99.90
19348;DHT22;9810;52.480;9.806;2023-09-19T11:02:16;19.50;99.90
19348;DHT22;9810;52.480;9.806;2023-09-19T11:04:43;19.90;99.90
19348;DHT22;9810;52.480;9.806;2023-09-19T11:07:14;20.10;99.90
19348;DHT22;9810;52.480;9.806;2023-09-19T11:09:48;20.00;99.90
19348;DHT22;9810;52.480;9.806;2023-09-19T11:12:48;19.80;99.90
19348;DHT22;9810;52.480;9.806;2023-09-19T11:18:51;20.10;99.90
19348;DHT22;9810;52.480;9.806;2023-09-19T11:21:38;19.80;99.90
19348;DHT22;9810;52.480;9.806;2023-09-19T11:24:29;19.70;99.90
19348;DHT22;9810;52.480;9.806;2023-09-19T11:27:16;19.70;99.90
19348;DHT22;9810;52.480;9.806;2023-09-19T11:29:44;19.90;99.90
19348;DHT22;9810;52.480;9.806;2023-09-19T11:32:11;20.10;99.90
19348;DHT22;9810;52.480;9.806;2023-09-19T11:34:48;20.30;99.90
19348;DHT22;9810;52.480;9.806;2023-09-19T11:40:39;20.20;99.90
19348;DHT22;9810;52.480;9.806;2023-09-19T11:43:33;20.20;99.90
19348;DHT22;9810;52.480;9.806;2023-09-19T11:46:06;20.00;99.90
19348;DHT22;9810;52.480;9.806;2023-09-19T11:48:35;20.30;99.90
19348;DHT22;9810;52.480;9.806;2023-09-19T11:51:18;20.20;99.90
19348;DHT22;9810;52.480;9.806;2023-09-19T11:53:48;20.10;99.90
19348;DHT22;9810;52.480;9.806;2023-09-19T11:56:19;20.30;99.90
19348;DHT22;9810;52.480;9.806;2023-09-19T11:58:51;20.40;99.90
19348;DHT22;9810;52.480;9.806;2023-09-19T12:01:25;20.50;99.90
19348;DHT22;9810;52.480;9.806;2023-09-19T12:04:04;20.20;99.90
19348;DHT22;9810;52.480;9.806;2023-09-19T12:06:33;20.00;99.90
19348;DHT22;9810;52.480;9.806;2023-09-19T12:09:06;19.90;99.90
19348;DHT22;9810;52.480;9.806;2023-09-19T12:19:17;20.30;99.90
19348;DHT22;9810;52.480;9.806;2023-09-19T12:22:17;20.40;99.90
19348;DHT22;9810;52.480;9.806;2023-09-19T12:24:47;20.50;99.90
19348;DHT22;9810;52.480;9.806;2023-09-19T12:27:16;19.90;99.90
19348;DHT22;9810;52.480;9.806;2023-09-19T12:29:44;19.80;99.90
19348;DHT22;9810;52.480;9.806;2023-09-19T12:32:12;19.90;99.90
19348;DHT22;9810;52.480;9.806;2023-09-19T12:34:42;19.60;99.90
19348;DHT22;9810;52.480;9.806;2023-09-19T12:37:18;19.60;99.90
19348;DHT22;9810;52.480;9.806;2023-09-19T12:39:49;19.50;99.90
19348;DHT22;9810;52.480;9.806;2023-09-19T12:42:17;19.40;99.90
19348;DHT22;9810;52.480;9.806;2023-09-19T12:44:46;19.80;99.90
19348;DHT22;9810;52.480;9.806;2023-09-19T12:47:15;19.80;99.90
19348;DHT22;9810;52.480;9.806;2023-09-19T12:50:11;19.80;99.90
19348;DHT22;9810;52.480;9.806;2023-09-19T12:53:08;19.90;99.90
19348;DHT22;9810;52.480;9.806;2023-09-19T12:55:58;19.90;99.90
19348;DHT22;9810;52.480;9.806;2023-09-19T12:58:26;20.00;99.90
19348;DHT22;9810;52.480;9.806;2023-09-19T13:00:53;19.80;99.90
19348;DHT22;9810;52.480;9.806;2023-09-19T13:13:50;20.60;99.90
19348;DHT22;9810;52.480;9.806;2023-09-19T13:19:44;20.00;99.90
19348;DHT22;9810;52.480;9.806;2023-09-19T13:22:36;20.20;99.90
19348;DHT22;9810;52.480;9.806;2023-09-19T13:25:04;20.60;99.90
19348;DHT22;9810;52.480;9.806;2023-09-19T13:27:32;20.90;99.90
19348;DHT22;9810;52.480;9.806;2023-09-19T13:30:01;20.90;99.90
19348;DHT22;9810;52.480;9.806;2023-09-19T13:32:27;20.60;99.90
19348;DHT22;9810;52.480;9.806;2023-09-19T13:34:54;20.80;99.90
19348;DHT22;9810;52.480;9.806;2023-09-19T13:37:27;20.80;99.90
19348;DHT22;9810;52.480;9.806;2023-09-19T13:39:54;20.50;99.90
19348;DHT22;9810;52.480;9.806;2023-09-19T13:42:24;20.90;99.90
19348;DHT22;9810;52.480;9.806;2023-09-19T13:44:52;20.80;99.90
19348;DHT22;9810;52.480;9.806;2023-09-19T13:47:27;20.70;99.90
19348;DHT22;9810;52.480;9.806;2023-09-19T13:49:54;21.00;99.90
19348;DHT22;9810;52.480;9.806;2023-09-19T13:52:23;20.70;99.90
19348;DHT22;9810;52.480;9.806;2023-09-19T13:55:05;20.70;99.90
19348;DHT22;9810;52.480;9.806;2023-09-19T13:57:46;20.60;99.90
19348;DHT22;9810;52.480;9.806;2023-09-19T14:00:15;20.80;99.90
19348;DHT22;9810;52.480;9.806;2023-09-19T14:02:45;21.00;99.90
19348;DHT22;9810;52.480;9.806;2023-09-19T14:05:16;20.70;99.90
19348;DHT22;9810;52.480;9.806;2023-09-19T14:07:44;20.30;99.90
19348;DHT22;9810;52.480;9.806;2023-09-19T14:10:12;20.50;99.90
19348;DHT22;9810;52.480;9.806;2023-09-19T14:12:39;20.50;99.90
19348;DHT22;9810;52.480;9.806;2023-09-19T14:15:09;20.60;99.90
19348;DHT22;9810;52.480;9.806;2023-09-19T14:17:37;20.10;99.90
19348;DHT22;9810;52.480;9.806;2023-09-19T14:20:07;20.40;99.90
19348;DHT22;9810;52.480;9.806;2023-09-19T14:22:36;20.60;99.90
19348;DHT22;9810;52.480;9.806;2023-09-19T14:25:04;20.60;99.90
19348;DHT22;9810;52.480;9.806;2023-09-19T14:27:31;20.60;99.90
19348;DHT22;9810;52.480;9.806;2023-09-19T14:29:58;20.70;99.90
19348;DHT22;9810;52.480;9.806;2023-09-19T14:32:26;20.60;99.90
19348;DHT22;9810;52.480;9.806;2023-09-19T14:34:53;20.60;99.90
19348;DHT22;9810;52.480;9.806;2023-09-19T14:37:25;20.40;99.90
19348;DHT22;9810;52.480;9.806;2023-09-19T14:40:10;20.30;99.90
19348;DHT22;9810;52.480;9.806;2023-09-19T14:42:39;20.40;99.90
19348;DHT22;9810;52.480;9.806;2023-09-19T14:45:07;20.50;99.90
19348;DHT22;9810;52.480;9.806;2023-09-19T14:47:34;20.10;99.90
19348;DHT22;9810;52.480;9.806;2023-09-19T14:50:03;20.00;99.90
19348;DHT22;9810;52.480;9.806;2023-09-19T14:52:33;20.00;99.90
19348;DHT22;9810;52.480;9.806;2023-09-19T14:58:40;19.90;99.90
19348;DHT22;9810;52.480;9.806;2023-09-19T15:04:46;20.00;99.90
19348;DHT22;9810;52.480;9.806;2023-09-19T15:17:52;20.00;99.90
19348;DHT22;9810;52.480;9.806;2023-09-19T15:23:45;20.20;99.90
19348;DHT22;9810;52.480;9.806;2023-09-19T15:33:42;20.30;99.90
19348;DHT22;9810;52.480;9.806;2023-09-19T15:36:11;20.30;99.90
19348;DHT22;9810;52.480;9.806;2023-09-19T15:38:58;20.30;99.90
19348;DHT22;9810;52.480;9.806;2023-09-19T15:41:26;20.40;99.90
19348;DHT22;9810;52.480;9.806;2023-09-19T15:43:53;20.40;99.90
19348;DHT22;9810;52.480;9.806;2023-09-19T15:46:21;20.40;99.90
19348;DHT22;9810;52.480;9.806;2023-09-19T15:48:50;20.20;99.90
19348;DHT22;9810;52.480;9.806;2023-09-19T15:51:17;20.10;99.90
19348;DHT22;9810;52.480;9.806;2023-09-19T15:53:46;20.00;99.90
19348;DHT22;9810;52.480;9.806;2023-09-19T15:56:14;19.80;99.90
19348;DHT22;9810;52.480;9.806;2023-09-19T15:58:44;19.70;99.90
19348;DHT22;9810;52.480;9.806;2023-09-19T16:01:11;19.70;99.90
19348;DHT22;9810;52.480;9.806;2023-09-19T16:03:48;19.70;99.90
19348;DHT22;9810;52.480;9.806;2023-09-19T16:06:20;19.70;99.90
19348;DHT22;9810;52.480;9.806;2023-09-19T16:08:50;19.80;99.90
19348;DHT22;9810;52.480;9.806;2023-09-19T16:11:18;19.70;99.90
19348;DHT22;9810;52.480;9.806;2023-09-19T16:13:47;19.60;99.90
19348;DHT22;9810;52.480;9.806;2023-09-19T16:16:15;19.60;99.90
19348;DHT22;9810;52.480;9.806;2023-09-19T16:18:45;19.60;99.90
19348;DHT22;9810;52.480;9.806;2023-09-19T16:21:13;19.60;99.90
19348;DHT22;9810;52.480;9.806;2023-09-19T16:23:46;19.50;99.90
19348;DHT22;9810;52.480;9.806;2023-09-19T16:26:16;19.60;99.90
19348;DHT22;9810;52.480;9.806;2023-09-19T16:28:45;19.60;99.90
19348;DHT22;9810;52.480;9.806;2023-09-19T16:31:12;19.60;99.90
19348;DHT22;9810;52.480;9.806;2023-09-19T16:33:40;19.70;99.90
19348;DHT22;9810;52.480;9.806;2023-09-19T16:36:14;19.70;99.90
19348;DHT22;9810;52.480;9.806;2023-09-19T16:38:43;19.60;99.90
19348;DHT22;9810;52.480;9.806;2023-09-19T16:41:12;19.60;99.90
19348;DHT22;9810;52.480;9.806;2023-09-19T16:43:47;19.60;99.90
19348;DHT22;9810;52.480;9.806;2023-09-19T16:46:15;19.60;99.90
19348;DHT22;9810;52.480;9.806;2023-09-19T16:48:44;19.60;99.90
19348;DHT22;9810;52.480;9.806;2023-09-19T16:51:13;19.50;99.90
19348;DHT22;9810;52.480;9.806;2023-09-19T16:53:40;19.50;99.90
19348;DHT22;9810;52.480;9.806;2023-09-19T16:56:09;19.50;99.90
19348;DHT22;9810;52.480;9.806;2023-09-19T16:58:44;19.50;99.90
19348;DHT22;9810;52.480;9.806;2023-09-19T17:01:12;19.50;99.90
19348;DHT22;9810;52.480;9.806;2023-09-19T17:03:40;19.50;99.90
19348;DHT22;9810;52.480;9.806;2023-09-19T17:06:08;19.30;99.90